createdAt,value
2023-05-24T00:04:30.191Z,97943.94
2023-05-24T00:09:34.587Z,97947.03
2023-05-24T00:14:40.133Z,97954.47
2023-05-24T00:19:44.305Z,97948.19
2023-05-24T00:24:48.796Z,97959.34
2023-05-24T00:29:54.816Z,97960.81
2023-05-24T00:34:59.428Z,97960.25
2023-05-24T00:40:04.412Z,97963.94
2023-05-24T00:45:11.836Z,97958.72
2023-05-24T00:50:17.356Z,97960.56
2023-05-24T00:55:21.986Z,97953.53
2023-05-24T01:00:28.636Z,97962.25
2023-05-24T01:05:33.457Z,97970.94
2023-05-24T01:10:51.556Z,97960.28
2023-05-24T01:16:02.625Z,97965.34
2023-05-24T01:21:25.525Z,97959.50
2023-05-24T01:26:43.588Z,97956.88
2023-05-24T01:31:51.242Z,97961.53
2023-05-24T01:36:56.110Z,97967.41
2023-05-24T01:42:12.738Z,97964.56
2023-05-24T01:47:36.281Z,97965.00
2023-05-24T01:52:45.096Z,97963.78
2023-05-24T01:57:51.889Z,97983.56
2023-05-24T02:02:58.858Z,97983.16
2023-05-24T02:08:03.371Z,97979.94
2023-05-24T02:13:08.137Z,97981.75
2023-05-24T02:18:14.237Z,97984.75
2023-05-24T02:23:19.724Z,97987.38
2023-05-24T02:28:24.050Z,97990.41
2023-05-24T02:33:30.368Z,97990.38
2023-05-24T02:38:34.708Z,97996.66
2023-05-24T02:43:39.055Z,97996.44
2023-05-24T02:48:44.921Z,97995.03
2023-05-24T02:53:49.386Z,98001.09
2023-05-24T02:58:54.367Z,97997.63
2023-05-24T03:04:00.612Z,98007.91
2023-05-24T03:09:05.652Z,98004.69
2023-05-24T03:14:11.124Z,98008.72
2023-05-24T03:19:19.424Z,98013.13
2023-05-24T03:24:26.116Z,98022.03
2023-05-24T03:29:30.638Z,98021.63
2023-05-24T03:34:36.229Z,98031.91
2023-05-24T03:39:40.733Z,98031.91
2023-05-24T03:44:57.614Z,98039.34
2023-05-24T03:50:03.660Z,98043.41
2023-05-24T03:55:09.037Z,98043.59
2023-05-24T04:00:15.402Z,98049.47
2023-05-24T04:05:27.153Z,98038.13
2023-05-24T04:10:31.508Z,98047.63
2023-05-24T04:15:35.968Z,98043.16
2023-05-24T04:20:42.217Z,98054.66
2023-05-24T04:25:47.319Z,98052.06
2023-05-24T04:30:53.990Z,98063.34
2023-05-24T04:36:01.898Z,98072.28
2023-05-24T04:41:07.964Z,98077.13
2023-05-24T04:46:12.251Z,98080.38
2023-05-24T04:51:17.998Z,98083.97
2023-05-24T04:56:22.948Z,98091.28
2023-05-24T05:01:27.849Z,98096.13
2023-05-24T05:06:35.160Z,98107.06
2023-05-24T05:11:39.654Z,98111.28
2023-05-24T05:16:44.718Z,98122.44
2023-05-24T05:21:50.869Z,98136.63
2023-05-24T05:26:55.048Z,98143.72
2023-05-24T05:31:59.334Z,98145.94
2023-05-24T05:37:05.108Z,98152.03
2023-05-24T05:42:09.652Z,98157.25
2023-05-24T05:47:13.947Z,98157.81
2023-05-24T05:52:19.944Z,98166.66
2023-05-24T05:57:24.620Z,98170.25
2023-05-24T06:02:29.525Z,98189.19
2023-05-24T06:07:35.990Z,98193.06
2023-05-24T06:12:40.809Z,98207.84
2023-05-24T06:17:47.951Z,98200.56
2023-05-24T06:22:53.805Z,98224.78
2023-05-24T06:27:58.279Z,98227.81
2023-05-24T06:33:02.763Z,98229.78
2023-05-24T06:38:09.299Z,98245.03
2023-05-24T06:43:13.727Z,98258.56
2023-05-24T06:48:18.757Z,98261.44
2023-05-24T06:53:25.287Z,98270.97
2023-05-24T06:58:29.739Z,98272.00
2023-05-24T07:03:34.086Z,98279.03
2023-05-24T07:08:39.904Z,98292.38
2023-05-24T07:13:44.109Z,98298.56
2023-05-24T07:18:48.556Z,98304.78
2023-05-24T07:23:54.453Z,98305.78
2023-05-24T07:28:58.857Z,98314.03
2023-05-24T07:34:03.405Z,98317.34
2023-05-24T07:39:10.089Z,98328.47
2023-05-24T07:44:15.183Z,98345.00
2023-05-24T07:49:19.772Z,98347.22
2023-05-24T07:54:25.711Z,98349.00
2023-05-24T07:59:30.139Z,98356.34
2023-05-24T08:04:35.663Z,98361.72
2023-05-24T08:09:41.994Z,98364.97
2023-05-24T08:14:46.990Z,98370.06
2023-05-24T08:19:51.008Z,98375.66
2023-05-24T08:24:56.680Z,98381.66
2023-05-24T08:30:01.229Z,98376.56
2023-05-24T08:35:20.464Z,98398.34
2023-05-24T08:40:28.066Z,98399.41
2023-05-24T08:45:34.310Z,98405.53
2023-05-24T08:50:38.885Z,98416.94
2023-05-24T08:55:45.518Z,98417.44
2023-05-24T09:00:50.076Z,98410.50
2023-05-24T09:05:54.856Z,98426.84
2023-05-24T09:11:01.340Z,98425.66
2023-05-24T09:16:09.116Z,98435.69
2023-05-24T09:21:14.033Z,98434.78
2023-05-24T09:26:19.401Z,98444.75
2023-05-24T09:31:34.655Z,98449.25
2023-05-24T09:36:43.377Z,98443.41
2023-05-24T09:41:57.302Z,98449.75
2023-05-24T09:47:05.299Z,98457.19
2023-05-24T09:52:10.056Z,98470.22
2023-05-24T09:57:17.301Z,98474.13
2023-05-24T10:02:23.986Z,98473.56
2023-05-24T10:07:28.484Z,98472.97
2023-05-24T10:12:36.560Z,98485.00
2023-05-24T10:17:41.167Z,98488.00
2023-05-24T10:22:47.637Z,98484.03
2023-05-24T10:27:57.842Z,98480.78
2023-05-24T10:33:04.981Z,98493.50
2023-05-24T10:38:10.146Z,98501.34
2023-05-24T10:43:17.870Z,98501.34
2023-05-24T10:48:37.704Z,98497.19
2023-05-24T10:53:42.092Z,98511.00
2023-05-24T10:59:02.439Z,98507.88
2023-05-24T11:04:11.199Z,98513.25
2023-05-24T11:09:17.014Z,98513.50
2023-05-24T11:14:28.609Z,98519.25
2023-05-24T11:19:36.148Z,98528.13
2023-05-24T11:24:43.050Z,98526.69
2023-05-24T11:36:59.162Z,98531.38
2023-05-24T11:42:13.348Z,98536.28
2023-05-24T11:47:17.826Z,98526.28
2023-05-24T11:52:23.422Z,98521.53
2023-05-24T11:57:38.426Z,98517.50
2023-05-24T12:02:42.698Z,98519.88
2023-05-24T12:07:49.114Z,98526.19
2023-05-24T12:13:01.606Z,98533.09
2023-05-24T12:18:05.795Z,98534.75
2023-05-24T12:23:11.563Z,98531.28
2023-05-24T12:28:16.411Z,98521.53
2023-05-24T12:33:21.153Z,98534.03
2023-05-24T12:38:27.822Z,98533.28
2023-05-24T12:43:32.550Z,98528.38
2023-05-24T12:48:37.014Z,98522.50
2023-05-24T12:53:43.366Z,98534.03
2023-05-24T12:58:48.271Z,98542.91
2023-05-24T13:03:53.802Z,98543.44
2023-05-24T13:08:59.493Z,98532.44
2023-05-24T14:48:07.099Z,98544.34
2023-05-24T14:53:15.922Z,98550.16
2023-05-24T14:58:20.393Z,98548.25
2023-05-24T15:03:26.088Z,98547.84
2023-05-24T15:08:30.774Z,98545.47
2023-05-24T15:13:35.125Z,98549.69
2023-05-24T15:18:41.063Z,98552.03
2023-05-24T15:23:45.258Z,98553.66
2023-05-24T15:28:49.465Z,98558.06
2023-05-24T15:33:55.213Z,98549.03
2023-05-24T15:38:59.751Z,98557.00
2023-05-24T15:44:08.782Z,98563.03
2023-05-24T15:49:14.718Z,98555.94
2023-05-24T15:54:19.515Z,98556.91
2023-05-24T15:59:26.019Z,98555.44
2023-05-24T16:04:31.713Z,98554.75
2023-05-24T16:09:35.946Z,98571.25
2023-05-24T16:14:40.158Z,98563.06
2023-05-24T16:19:47.149Z,98580.28
2023-05-24T16:24:51.615Z,98580.00
2023-05-24T16:29:55.902Z,98572.25
2023-05-24T16:35:01.485Z,98579.50
2023-05-24T16:40:07.522Z,98587.25
2023-05-24T16:45:14.878Z,98587.53
2023-05-24T16:50:20.904Z,98596.56
2023-05-24T16:55:25.313Z,98610.34
2023-05-24T17:00:29.501Z,98610.25
2023-05-24T17:05:35.454Z,98606.34
2023-05-24T17:18:30.119Z,98612.31
2023-05-24T17:23:37.812Z,98627.34
2023-05-24T17:28:45.202Z,98629.78
2023-05-24T17:33:49.498Z,98635.94
2023-05-24T17:38:55.054Z,98641.19
2023-05-24T17:43:59.729Z,98640.28
2023-05-24T17:49:04.501Z,98646.84
2023-05-24T17:54:09.924Z,98653.88
2023-05-24T17:59:14.028Z,98653.63
2023-05-24T18:04:18.253Z,98657.50
2023-05-24T18:09:23.888Z,98659.31
2023-05-24T18:14:28.854Z,98667.16
2023-05-24T18:19:33.493Z,98678.09
2023-05-24T18:24:39.099Z,98678.28
2023-05-24T18:29:43.519Z,98688.91
2023-05-24T18:34:48.091Z,98689.97
2023-05-24T18:39:53.844Z,98708.03
2023-05-24T18:44:58.034Z,98707.34
2023-05-24T18:50:02.266Z,98716.78
2023-05-24T18:55:11.378Z,98715.84
2023-05-24T19:00:19.271Z,98720.97
2023-05-24T19:05:26.057Z,98726.22
2023-05-24T19:10:31.630Z,98726.69
2023-05-24T19:15:37.363Z,98732.38
2023-05-24T19:20:41.574Z,98725.81
2023-05-24T19:25:50.320Z,98730.22
2023-05-24T19:30:54.608Z,98736.19
2023-05-24T19:35:59.156Z,98734.72
2023-05-24T19:41:05.144Z,98732.16
2023-05-24T19:46:11.154Z,98733.59
2023-05-24T19:51:15.911Z,98731.22
2023-05-24T19:56:21.924Z,98721.25
2023-05-24T20:01:27.157Z,98726.16
2023-05-24T20:06:31.526Z,98725.97
2023-05-24T20:11:37.449Z,98727.31
2023-05-24T20:16:42.013Z,98727.03
2023-05-24T20:21:46.231Z,98726.50
2023-05-24T20:26:52.016Z,98723.41
2023-05-24T20:31:56.397Z,98729.94
2023-05-24T20:37:00.905Z,98727.78
2023-05-24T20:42:08.273Z,98729.13
2023-05-24T20:47:12.475Z,98718.34
2023-05-24T20:52:16.840Z,98717.25
2023-05-24T20:57:22.627Z,98721.44
2023-05-24T21:02:29.044Z,98722.63
2023-05-24T21:07:33.440Z,98734.59
2023-05-24T21:12:39.185Z,98728.66
2023-05-24T21:17:43.621Z,98741.78
2023-05-24T21:22:47.920Z,98752.59
2023-05-24T21:27:53.520Z,98745.03
2023-05-24T21:32:57.849Z,98758.97
2023-05-24T21:38:02.388Z,98763.31
2023-05-24T21:43:12.329Z,98764.16
2023-05-24T21:48:17.058Z,98764.19
2023-05-24T21:53:21.626Z,98777.59
2023-05-24T21:58:27.355Z,98773.47
2023-05-24T22:03:31.838Z,98782.78
2023-05-24T22:08:36.496Z,98787.72
2023-05-24T22:13:50.814Z,98789.19
2023-05-24T22:18:56.865Z,98789.19
2023-05-24T22:24:01.887Z,98791.16
2023-05-24T22:29:08.033Z,98803.09
2023-05-24T22:34:13.135Z,98810.31
2023-05-24T22:39:17.802Z,98809.50
2023-05-24T22:44:23.748Z,98818.94
2023-05-24T22:49:37.219Z,98803.13
2023-05-24T22:54:41.421Z,98803.78
2023-05-24T22:59:47.202Z,98806.09
2023-05-24T23:04:51.578Z,98799.06
2023-05-24T23:09:56.100Z,98797.28
2023-05-24T23:15:01.637Z,98810.03
2023-05-24T23:20:10.128Z,98805.75
2023-05-24T23:25:14.430Z,98806.22
2023-05-24T23:30:20.455Z,98801.81
2023-05-24T23:35:24.693Z,98803.78
2023-05-24T23:40:30.062Z,98798.41
2023-05-24T23:45:36.083Z,98795.94
2023-05-24T23:50:53.078Z,98790.53
2023-05-24T23:55:57.913Z,98789.59
